Time;durP1;ratioP1;P1;durP2;ratioP2;P2;SDS_P1;SDS_P2;PMS_P1;PMS_P2;Temp;Humidity;BMP_temperature;BMP_pressure;BME280_temperature;BME280_humidity;BME280_pressure;Samples;Min_cycle;Max_cycle;Signal;HPM_P1;HPM_P2
2023/11/02 07:16:28;;;;;;;;;0.33;0.00;;;;;23.12;45.30;96906.53;5581328;23;46110;-77
2023/11/02 07:18:56;;;;;;;;;1.67;0.00;;;;;23.15;45.65;96911.28;4896840;28;45568;-77
2023/11/02 07:21:21;;;;;;;;;0.33;0.33;;;;;23.18;44.99;96951.28;4898941;29;45421;-80
2023/11/02 07:23:49;;;;;;;;;1.00;0.00;;;;;23.15;45.64;96975.72;4897425;28;47167;-76
2023/11/02 07:26:15;;;;;;;;;0.00;0.00;;;;;23.21;45.71;96955.25;4898818;28;45462;-76
2023/11/02 07:28:40;;;;;;;;;1.00;0.00;;;;;23.15;45.34;96962.44;4871671;29;45816;-75
2023/11/02 07:31:08;;;;;;;;;1.00;0.00;;;;;23.20;45.44;96966.91;4867191;28;45571;-77
2023/11/02 07:33:39;;;;;;;;;0.00;0.00;;;;;23.11;45.16;96969.38;4893339;29;46391;-79
2023/11/02 07:36:10;;;;;;;;;0.00;0.00;;;;;23.17;45.21;96962.94;4893582;29;45319;-78
2023/11/02 07:38:35;;;;;;;;;1.00;0.00;;;;;23.22;45.75;96972.72;4895624;28;45512;-77
2023/11/02 07:41:00;;;;;;;;;1.00;1.00;;;;;23.25;44.98;96974.81;4892826;28;45680;-78
2023/11/02 07:43:26;;;;;;;;;0.00;0.00;;;;;23.17;45.51;96978.06;4895384;29;46853;-78
2023/11/02 07:45:51;;;;;;;;;1.00;0.00;;;;;23.22;45.38;96993.91;4893080;28;45687;-78
2023/11/02 07:48:16;;;;;;;;;1.67;0.33;;;;;23.22;45.19;96988.63;4895262;29;45611;-78
2023/11/02 07:50:42;;;;;;;;;0.00;0.00;;;;;22.88;45.43;96931.19;4895903;28;45418;-79
2023/11/02 07:53:07;;;;;;;;;2.00;0.00;;;;;23.25;45.30;97001.31;4892219;28;45906;-78
2023/11/02 07:55:33;;;;;;;;;0.00;0.00;;;;;23.21;45.19;97013.56;4895653;28;45623;-77
2023/11/02 07:57:59;;;;;;;;;0.00;0.00;;;;;23.26;45.29;97018.03;4890831;28;45841;-78
2023/11/02 08:00:24;;;;;;;;;0.00;0.00;;;;;22.94;45.05;96943.31;4892160;29;46660;-77
2023/11/02 08:02:49;;;;;;;;;0.00;0.00;;;;;23.26;45.05;97012.72;4893728;29;47105;-78
2023/11/02 08:05:15;;;;;;;;;0.33;0.00;;;;;23.25;45.44;97003.97;4895465;28;45495;-77
2023/11/02 08:07:40;;;;;;;;;0.00;0.00;;;;;23.22;45.45;97025.75;4895584;28;45863;-77
2023/11/02 08:10:07;;;;;;;;;0.00;0.00;;;;;23.26;45.56;97015.38;4893465;29;49096;-78
2023/11/02 08:12:33;;;;;;;;;2.33;1.00;;;;;23.18;44.98;97024.72;4895238;28;45378;-78
2023/11/02 08:14:58;;;;;;;;;0.00;0.00;;;;;23.15;44.95;97018.13;4893593;29;45626;-78
2023/11/02 08:17:27;;;;;;;;;0.00;0.00;;;;;23.24;45.41;97022.81;4894734;28;45550;-78
2023/11/02 08:19:53;;;;;;;;;0.00;0.00;;;;;23.25;44.87;97019.88;4894858;28;45869;-79
2023/11/02 08:22:18;;;;;;;;;2.00;0.00;;;;;23.16;45.08;97006.44;4895317;28;46299;-78
2023/11/02 08:24:43;;;;;;;;;0.00;0.00;;;;;23.17;44.99;97023.16;4895020;28;45832;-77
2023/11/02 08:27:09;;;;;;;;;0.00;0.00;;;;;23.12;44.82;97025.84;4894970;28;45402;-78
2023/11/02 08:29:34;;;;;;;;;0.00;0.00;;;;;23.06;45.22;97004.69;4895234;28;45550;-78
2023/11/02 08:31:59;;;;;;;;;0.00;0.00;;;;;23.24;45.07;97039.50;4894742;28;46177;-78
2023/11/02 08:34:25;;;;;;;;;0.00;0.00;;;;;23.23;44.82;97053.84;4894016;29;45717;-78
2023/11/02 08:36:50;;;;;;;;;0.00;0.00;;;;;23.08;45.31;97022.97;4893822;29;45438;-77
2023/11/02 08:39:17;;;;;;;;;0.00;0.00;;;;;23.17;45.33;97057.63;4895037;28;46944;-77
2023/11/02 08:41:42;;;;;;;;;1.67;0.00;;;;;23.16;45.39;97085.97;4894624;28;46791;-78
2023/11/02 08:44:08;;;;;;;;;0.00;0.00;;;;;23.21;45.01;97100.28;4894006;28;45694;-79
2023/11/02 08:46:35;;;;;;;;;0.00;0.00;;;;;23.13;45.03;97068.00;4894973;28;45604;-78
2023/11/02 08:49:00;;;;;;;;;0.00;0.00;;;;;23.13;44.98;97081.25;4894154;28;45538;-79
2023/11/02 08:51:25;;;;;;;;;0.00;0.00;;;;;23.24;45.23;97107.66;4896389;28;45585;-78
2023/11/02 08:53:51;;;;;;;;;0.00;0.00;;;;;23.23;44.87;97120.16;4897333;28;45535;-78
2023/11/02 08:56:17;;;;;;;;;0.00;0.00;;;;;23.03;45.02;97097.25;4895018;28;45800;-78
2023/11/02 08:58:47;;;;;;;;;0.00;0.00;;;;;23.06;45.27;97117.88;4894704;28;45656;-78
2023/11/02 09:01:18;;;;;;;;;0.00;0.00;;;;;23.00;44.70;97116.38;4893902;28;47207;-78
2023/11/02 09:03:45;;;;;;;;;1.00;0.00;;;;;23.08;44.66;97118.44;4894547;28;45594;-78
2023/11/02 09:06:10;;;;;;;;;0.00;0.00;;;;;23.24;44.87;97140.28;4894656;28;45603;-78
2023/11/02 09:08:37;;;;;;;;;1.33;0.00;;;;;23.14;44.76;97124.44;4894349;29;45534;-78
2023/11/02 09:11:03;;;;;;;;;0.00;0.00;;;;;23.25;44.68;97146.38;4897020;29;47246;-78
2023/11/02 09:13:30;;;;;;;;;1.00;0.00;;;;;23.10;44.82;97108.34;4898358;28;45544;-78
2023/11/02 09:15:56;;;;;;;;;0.00;0.00;;;;;23.25;44.72;97136.56;4896081;28;45561;-77
2023/11/02 09:18:24;;;;;;;;;0.00;0.00;;;;;23.12;44.75;97134.56;4895828;28;45868;-79
2023/11/02 09:20:50;;;;;;;;;0.67;0.00;;;;;22.98;44.93;97126.47;4894594;28;45465;-77
2023/11/02 09:23:16;;;;;;;;;0.67;0.00;;;;;22.94;44.85;97140.25;4894892;28;45589;-78
2023/11/02 09:25:43;;;;;;;;;1.00;0.00;;;;;23.24;44.81;97164.16;4895179;28;45430;-78
2023/11/02 09:28:08;;;;;;;;;1.67;0.00;;;;;23.25;44.58;97186.16;4894988;28;45552;-78
2023/11/02 09:30:34;;;;;;;;;0.00;0.00;;;;;23.14;44.70;97172.19;4894777;28;45616;-78
2023/11/02 09:32:59;;;;;;;;;0.00;0.00;;;;;22.90;44.43;97141.09;4894850;28;45478;-78
2023/11/02 09:35:25;;;;;;;;;0.00;0.00;;;;;22.90;44.52;97135.78;4894180;28;45515;-77
2023/11/02 09:37:51;;;;;;;;;0.33;0.33;;;;;23.07;45.07;97160.06;4893472;28;45616;-76
2023/11/02 09:40:17;;;;;;;;;2.00;0.00;;;;;23.23;44.93;97194.41;4892990;29;45576;-78
2023/11/02 09:42:44;;;;;;;;;1.00;0.00;;;;;23.23;44.50;97205.00;4895213;28;45351;-78
2023/11/02 09:45:10;;;;;;;;;1.00;0.00;;;;;23.22;44.40;97218.53;4893978;28;45526;-78
2023/11/02 09:47:35;;;;;;;;;0.00;0.00;;;;;23.06;44.59;97190.28;4894810;28;45451;-78
2023/11/02 09:50:01;;;;;;;;;0.00;0.00;;;;;23.23;44.73;97225.44;4894132;28;46204;-78
2023/11/02 09:52:27;;;;;;;;;3.00;0.00;;;;;23.18;44.58;97220.97;4894012;28;45586;-78
2023/11/02 09:54:53;;;;;;;;;0.00;0.00;;;;;23.16;44.48;97223.09;4894056;28;45891;-79
2023/11/02 09:57:19;;;;;;;;;0.00;0.00;;;;;23.14;44.45;97219.91;4890221;29;45459;-77
2023/11/02 09:59:46;;;;;;;;;1.00;0.00;;;;;23.03;44.63;97198.78;4894098;29;46116;-78
2023/11/02 10:02:12;;;;;;;;;0.00;0.00;;;;;23.23;44.55;97244.00;4896868;28;45662;-77
2023/11/02 10:04:38;;;;;;;;;0.00;0.00;;;;;23.23;44.59;97236.03;4897477;29;45557;-79
2023/11/02 10:07:05;;;;;;;;;1.00;0.00;;;;;23.18;44.68;97236.88;4897396;28;45881;-78
2023/11/02 10:09:34;;;;;;;;;0.00;0.00;;;;;23.24;44.89;97256.16;4898548;28;46434;-78
2023/11/02 10:12:00;;;;;;;;;0.00;0.00;;;;;23.13;44.11;97242.22;4894036;29;45700;-78
2023/11/02 10:14:25;;;;;;;;;0.67;0.00;;;;;23.19;44.61;97249.03;4896626;28;45587;-77
2023/11/02 10:17:01;;;;;;;;;0.67;0.00;;;;;22.90;44.64;97216.09;4897326;28;45547;-77
2023/11/02 10:19:26;;;;;;;;;0.00;0.00;;;;;22.95;44.93;97231.97;4897086;28;45700;-76
2023/11/02 10:21:52;;;;;;;;;0.00;0.00;;;;;23.10;44.88;97245.41;4897689;28;45452;-78
2023/11/02 10:24:27;;;;;;;;;1.00;0.00;;;;;23.01;44.35;97250.47;4898792;28;45488;-77
2023/11/02 10:26:54;;;;;;;;;0.00;0.00;;;;;23.10;44.67;97256.81;4898469;29;46023;-78
2023/11/02 10:29:20;;;;;;;;;1.00;0.00;;;;;23.16;44.41;97254.91;4898933;28;46583;-77
2023/11/02 10:31:46;;;;;;;;;0.00;0.00;;;;;23.03;44.50;97241.19;4897245;28;45627;-79
2023/11/02 10:34:12;;;;;;;;;0.67;0.00;;;;;23.17;44.58;97261.78;4898569;28;45786;-78
2023/11/02 10:36:37;;;;;;;;;0.00;0.00;;;;;23.04;44.79;97255.25;4898444;28;45396;-77
2023/11/02 10:39:03;;;;;;;;;0.00;0.00;;;;;22.98;44.58;97265.06;4897178;29;46126;-77
2023/11/02 10:41:32;;;;;;;;;1.00;0.00;;;;;23.07;44.64;97297.91;4896747;28;45366;-78
2023/11/02 10:44:03;;;;;;;;;0.00;0.00;;;;;23.06;44.71;97300.81;4896666;28;45827;-77
2023/11/02 10:46:29;;;;;;;;;0.00;0.00;;;;;23.19;44.46;97302.06;4895931;28;45617;-78
2023/11/02 10:48:59;;;;;;;;;0.00;0.00;;;;;23.22;44.40;97304.19;4895572;28;45450;-79
2023/11/02 10:51:29;;;;;;;;;0.67;0.00;;;;;23.17;44.24;97318.28;4896912;28;45387;-76
2023/11/02 10:54:31;;;;;;;;;0.00;0.00;;;;;23.22;44.51;97330.72;4895998;28;46500;-79
2023/11/02 10:57:09;;;;;;;;;1.00;0.00;;;;;23.22;44.83;97324.59;4895718;28;45359;-78
2023/11/02 10:59:35;;;;;;;;;0.00;0.00;;;;;23.06;44.58;97306.94;4894304;28;46651;-79
2023/11/02 11:02:03;;;;;;;;;0.00;0.00;;;;;23.06;44.58;97296.31;4891359;29;46306;-78
2023/11/02 11:04:32;;;;;;;;;0.00;0.00;;;;;23.17;44.85;97330.75;4892979;28;45597;-76
2023/11/02 11:06:59;;;;;;;;;1.00;0.00;;;;;23.22;44.20;97348.47;4896246;29;45592;-77
2023/11/02 11:09:26;;;;;;;;;0.00;0.00;;;;;23.22;44.53;97357.22;4896545;28;45561;-78
2023/11/02 11:11:53;;;;;;;;;0.33;0.33;;;;;22.87;44.32;97295.38;4894373;28;45878;-77
2023/11/02 11:14:20;;;;;;;;;0.00;0.00;;;;;23.06;44.42;97338.75;4895547;28;45823;-78
2023/11/02 11:16:47;;;;;;;;;0.00;0.00;;;;;23.23;44.62;97373.94;4895258;28;45492;-78
2023/11/02 11:19:13;;;;;;;;;0.00;0.00;;;;;23.23;44.49;97387.19;4895836;28;46190;-83
2023/11/02 11:21:41;;;;;;;;;0.00;0.00;;;;;22.89;44.09;97331.13;4895700;28;45467;-81
2023/11/02 11:24:11;;;;;;;;;0.67;0.00;;;;;23.23;44.45;97388.00;4894103;29;45470;-82
2023/11/02 11:26:44;;;;;;;;;0.00;0.00;;;;;23.12;44.60;97387.25;4895104;28;45661;-81
2023/11/02 11:29:53;;;;;;;;;0.00;0.00;;;;;23.22;44.55;97385.59;4896447;28;47064;-83
2023/11/02 11:32:24;;;;;;;;;0.00;0.00;;;;;23.23;44.84;97422.47;4894914;29;45361;-81
2023/11/02 11:34:52;;;;;;;;;0.00;0.00;;;;;23.23;44.73;97413.72;4897226;28;45491;-79
2023/11/02 11:40:20;;;;;;;;;0.00;0.00;;;;;23.23;44.53;97421.69;4898975;28;45299;-81
2023/11/02 11:42:51;;;;;;;;;0.00;0.00;;;;;23.24;44.58;97417.94;4899470;29;45405;-81
2023/11/02 11:45:33;;;;;;;;;3.00;0.00;;;;;23.24;44.60;97433.84;4900287;28;45364;-80
2023/11/02 11:47:58;;;;;;;;;3.00;0.00;;;;;23.22;44.89;97434.13;4900300;28;45384;-81
2023/11/02 11:50:38;;;;;;;;;0.00;0.00;;;;;23.25;44.86;97468.06;4900200;28;46265;-82
2023/11/02 11:53:23;;;;;;;;;0.00;0.00;;;;;23.27;44.71;97467.78;4900558;28;45374;-80
2023/11/02 11:55:55;;;;;;;;;0.00;0.00;;;;;23.23;44.81;97464.09;4892705;29;45377;-81
2023/11/02 11:58:37;;;;;;;;;0.67;0.00;;;;;23.27;44.50;97487.16;4888222;29;45412;-76
2023/11/02 12:01:02;;;;;;;;;1.00;0.00;;;;;23.27;44.62;97487.16;4899672;28;46551;-75
2023/11/02 12:03:39;;;;;;;;;0.00;0.00;;;;;23.27;44.88;97497.78;4899872;28;45298;-74
2023/11/02 12:06:07;;;;;;;;;0.33;0.00;;;;;23.28;44.69;97504.66;4898545;29;45410;-75
2023/11/02 12:08:51;;;;;;;;;1.67;0.00;;;;;23.28;44.87;97499.38;4899678;28;45594;-75
2023/11/02 12:11:24;;;;;;;;;0.00;0.00;;;;;23.30;44.34;97491.13;4898166;29;46215;-75
2023/11/02 12:13:57;;;;;;;;;0.00;0.00;;;;;23.29;44.85;97508.09;4899382;28;45442;-75
2023/11/02 12:16:30;;;;;;;;;0.00;0.00;;;;;23.22;45.00;97499.63;4899877;28;45356;-76
2023/11/02 12:18:55;;;;;;;;;1.00;0.00;;;;;23.30;44.99;97520.31;4899333;28;45387;-76
2023/11/02 12:21:22;;;;;;;;;0.00;0.00;;;;;23.29;44.80;97519.50;4899733;28;45377;-76
2023/11/02 12:23:50;;;;;;;;;0.00;0.00;;;;;23.30;44.76;97530.91;4889979;28;45422;-76
2023/11/02 12:26:18;;;;;;;;;0.00;0.00;;;;;23.25;44.81;97537.03;4890998;29;45813;-76
2023/11/02 12:28:56;;;;;;;;;0.00;0.00;;;;;23.22;45.02;97544.72;4899495;28;45567;-75
2023/11/02 12:31:30;;;;;;;;;0.00;0.00;;;;;23.29;44.73;97556.63;4899739;28;46229;-76
2023/11/02 12:33:57;;;;;;;;;0.00;0.00;;;;;23.29;44.67;97569.91;4899279;28;45388;-76
2023/11/02 12:36:23;;;;;;;;;0.00;0.00;;;;;23.21;44.77;97553.75;4899527;28;45301;-74
2023/11/02 12:38:50;;;;;;;;;1.67;1.00;;;;;23.08;44.62;97513.47;4888494;28;45487;-74
2023/11/02 12:41:22;;;;;;;;;0.67;0.00;;;;;23.31;44.60;97563.53;4897058;28;47148;-79
2023/11/02 12:43:47;;;;;;;;;0.00;0.00;;;;;23.29;44.80;97554.00;4894434;28;45328;-79
2023/11/02 12:46:12;;;;;;;;;0.00;0.00;;;;;23.28;45.00;97557.72;4893732;28;45347;-79
2023/11/02 12:48:40;;;;;;;;;0.00;0.00;;;;;23.32;44.51;97562.47;4894239;28;45447;-79
2023/11/02 12:51:15;;;;;;;;;0.00;0.00;;;;;23.15;44.49;97537.06;4893529;29;46547;-79
2023/11/02 12:53:42;;;;;;;;;0.00;0.00;;;;;22.87;44.52;97510.06;4890086;28;45543;-79
2023/11/02 12:56:11;;;;;;;;;0.00;0.00;;;;;23.23;44.92;97560.38;4894541;28;45509;-77
2023/11/02 12:58:37;;;;;;;;;0.00;0.00;;;;;23.26;44.73;97578.38;4895101;28;45295;-79
2023/11/02 13:01:03;;;;;;;;;0.33;0.00;;;;;23.31;44.97;97588.22;4894839;28;46231;-78
2023/11/02 13:03:29;;;;;;;;;0.00;0.00;;;;;23.32;44.98;97594.28;4894729;28;45298;-79
2023/11/02 13:05:55;;;;;;;;;0.00;0.00;;;;;23.19;44.73;97567.28;4894621;28;45894;-79
2023/11/02 13:08:21;;;;;;;;;1.00;0.00;;;;;23.22;44.52;97573.91;4894206;28;45625;-79
2023/11/02 13:10:48;;;;;;;;;0.00;0.00;;;;;23.31;44.41;97598.03;4894556;29;47285;-78
2023/11/02 13:13:14;;;;;;;;;0.00;0.00;;;;;23.23;44.38;97576.28;4894116;28;45986;-78
2023/11/02 13:15:39;;;;;;;;;1.33;0.00;;;;;23.22;44.71;97577.34;4894365;28;45490;-79
2023/11/02 13:18:05;;;;;;;;;0.00;0.00;;;;;23.17;44.62;97572.84;4894583;28;45570;-79
2023/11/02 13:20:32;;;;;;;;;1.00;1.00;;;;;23.29;44.56;97600.94;4887542;28;46407;-76
2023/11/02 13:22:58;;;;;;;;;1.00;0.00;;;;;23.31;44.78;97598.81;4889634;28;45349;-76
2023/11/02 13:25:23;;;;;;;;;0.00;0.00;;;;;23.32;44.87;97607.56;4889645;29;45331;-76
2023/11/02 13:27:49;;;;;;;;;0.00;0.00;;;;;23.31;44.91;97604.13;4889718;29;45510;-77
2023/11/02 13:30:15;;;;;;;;;0.00;0.00;;;;;23.32;44.22;97612.88;4890305;28;46207;-76
2023/11/02 13:32:42;;;;;;;;;0.00;0.00;;;;;23.32;44.45;97616.31;4890120;28;45506;-76
2023/11/02 13:35:08;;;;;;;;;1.00;0.00;;;;;23.25;44.43;97613.94;4896103;29;45443;-76
2023/11/02 13:37:33;;;;;;;;;0.33;0.33;;;;;23.27;44.43;97619.78;4900214;28;45691;-76
2023/11/02 13:39:59;;;;;;;;;3.00;1.00;;;;;23.31;44.72;97632.50;4900574;28;46874;-76
2023/11/02 13:42:26;;;;;;;;;0.00;0.00;;;;;23.32;44.78;97629.59;4900163;28;45894;-77
2023/11/02 13:44:51;;;;;;;;;0.00;0.00;;;;;23.33;44.32;97636.50;4900255;28;45378;-77
2023/11/02 13:47:18;;;;;;;;;0.67;0.67;;;;;23.03;44.22;97607.06;4900314;28;45432;-77
2023/11/02 13:49:43;;;;;;;;;1.67;0.00;;;;;23.32;44.26;97647.34;4899261;28;46253;-77
2023/11/02 13:52:08;;;;;;;;;0.00;0.00;;;;;23.31;44.41;97643.91;4899394;28;45532;-78
2023/11/02 13:54:35;;;;;;;;;0.00;0.00;;;;;23.31;44.64;97640.47;4899783;28;45415;-77
2023/11/02 13:57:00;;;;;;;;;0.33;0.33;;;;;23.32;44.52;97652.66;4900216;28;45598;-76
2023/11/02 13:59:27;;;;;;;;;1.00;0.00;;;;;23.31;44.61;97649.22;4899513;29;46200;-76
2023/11/02 14:01:53;;;;;;;;;0.00;0.00;;;;;23.29;44.34;97657.44;4899300;28;45567;-77
2023/11/02 14:04:19;;;;;;;;;0.00;0.00;;;;;23.31;44.25;97659.84;4899245;28;45472;-77
2023/11/02 14:06:52;;;;;;;;;0.00;0.00;;;;;23.31;44.85;97654.53;4900113;28;45519;-77
2023/11/02 14:09:17;;;;;;;;;0.00;0.00;;;;;23.27;44.01;97653.47;4899650;28;45447;-77
2023/11/02 14:11:43;;;;;;;;;0.00;0.00;;;;;23.20;44.43;97656.38;4900147;28;45467;-76
2023/11/02 14:14:08;;;;;;;;;0.00;0.00;;;;;23.28;44.72;97655.06;4900278;28;45541;-77
2023/11/02 14:16:34;;;;;;;;;0.00;0.00;;;;;23.32;44.14;97657.97;4900094;28;45396;-76
2023/11/02 14:19:00;;;;;;;;;0.00;0.00;;;;;23.31;44.53;97662.50;4899313;28;47283;-76
2023/11/02 14:21:25;;;;;;;;;2.67;0.00;;;;;23.24;44.76;97646.81;4898784;28;45654;-77
2023/11/02 14:23:50;;;;;;;;;1.33;0.00;;;;;23.20;44.29;97652.94;4899866;28;46490;-76
2023/11/02 14:26:16;;;;;;;;;0.00;0.00;;;;;23.17;44.47;97657.72;4899098;29;47524;-77
2023/11/02 14:28:41;;;;;;;;;0.00;0.00;;;;;23.31;44.36;97675.75;4899148;28;45527;-78
2023/11/02 14:31:08;;;;;;;;;0.00;0.00;;;;;23.28;44.68;97677.09;4896729;28;45458;-77
2023/11/02 14:33:34;;;;;;;;;0.00;0.00;;;;;23.22;44.43;97662.22;4898486;29;45464;-78
2023/11/02 14:36:02;;;;;;;;;0.00;0.00;;;;;23.29;44.58;97691.13;4900370;28;45658;-76
2023/11/02 14:38:28;;;;;;;;;0.00;0.00;;;;;23.09;44.05;97660.88;4898596;28;46938;-77
2023/11/02 14:40:55;;;;;;;;;0.33;0.33;;;;;23.23;44.36;97674.44;4899030;28;45985;-78
2023/11/02 14:43:22;;;;;;;;;0.00;0.00;;;;;23.01;44.22;97653.47;4898333;28;45581;-77
2023/11/02 14:45:47;;;;;;;;;0.00;0.00;;;;;23.31;44.32;97706.78;4898276;28;45676;-77
2023/11/02 14:48:14;;;;;;;;;0.00;0.00;;;;;23.22;44.36;97696.69;4895959;28;46176;-76
2023/11/02 14:50:39;;;;;;;;;0.00;0.00;;;;;23.31;44.25;97701.47;4896284;28;45525;-77
2023/11/02 14:53:05;;;;;;;;;0.00;0.00;;;;;23.31;44.54;97718.19;4895758;28;46001;-76
2023/11/02 14:55:31;;;;;;;;;0.00;0.00;;;;;23.26;44.12;97716.31;4896045;29;45398;-75
2023/11/02 14:57:56;;;;;;;;;0.00;0.00;;;;;23.20;44.22;97714.72;4895514;28;46868;-76
2023/11/02 15:00:22;;;;;;;;;0.00;0.00;;;;;23.31;44.39;97730.66;4895778;28;45533;-76
2023/11/02 15:02:48;;;;;;;;;0.00;0.00;;;;;23.30;44.31;97737.81;4895685;28;45561;-76
2023/11/02 15:05:14;;;;;;;;;0.67;0.00;;;;;23.31;44.34;97754.53;4895470;28;45980;-76
2023/11/02 15:07:39;;;;;;;;;0.00;0.00;;;;;23.29;44.04;97747.63;4895405;28;46056;-77
2023/11/02 15:10:06;;;;;;;;;0.00;0.00;;;;;23.15;44.73;97723.50;4895716;28;45473;-77
2023/11/02 15:12:32;;;;;;;;;0.00;0.00;;;;;23.29;44.25;97754.78;4896219;28;45383;-76
2023/11/02 15:15:00;;;;;;;;;0.00;0.00;;;;;23.17;44.51;97747.88;4895094;28;45703;-76
2023/11/02 15:17:28;;;;;;;;;1.00;0.00;;;;;23.28;44.42;97764.63;4893530;28;45535;-76
2023/11/02 15:19:53;;;;;;;;;0.00;0.00;;;;;23.27;43.98;97770.97;4891029;29;45622;-76
2023/11/02 15:22:19;;;;;;;;;1.00;0.00;;;;;23.26;44.41;97764.06;4895406;28;45966;-76
2023/11/02 15:24:44;;;;;;;;;0.00;0.00;;;;;23.13;44.02;97760.09;4895512;28;45831;-76
2023/11/02 15:27:09;;;;;;;;;0.00;0.00;;;;;23.20;44.15;97774.94;4894864;28;46118;-76
2023/11/02 15:29:35;;;;;;;;;0.00;0.00;;;;;23.26;44.20;97795.88;4895947;28;45435;-77
2023/11/02 15:32:01;;;;;;;;;0.33;0.00;;;;;23.23;44.27;97792.97;4893439;28;45679;-77
2023/11/02 15:34:27;;;;;;;;;0.00;0.00;;;;;23.25;44.08;97796.16;4895150;28;45509;-76
2023/11/02 15:36:53;;;;;;;;;0.00;0.00;;;;;23.15;44.13;97800.41;4894311;29;46168;-74
2023/11/02 15:39:19;;;;;;;;;0.00;0.00;;;;;23.17;44.56;97813.38;4894922;28;45974;-76
2023/11/02 15:41:44;;;;;;;;;0.00;0.00;;;;;23.11;44.43;97809.13;4894752;28;46208;-77
2023/11/02 15:44:10;;;;;;;;;0.33;0.33;;;;;23.19;44.18;97821.88;4894807;28;45507;-77
2023/11/02 15:46:41;;;;;;;;;0.33;0.00;;;;;23.13;44.03;97818.44;4895285;28;45934;-76
2023/11/02 15:49:07;;;;;;;;;0.33;0.00;;;;;23.17;44.75;97832.75;4894619;28;45592;-76
2023/11/02 15:51:32;;;;;;;;;1.67;0.00;;;;;23.20;44.26;97851.84;4895495;28;45407;-76
2023/11/02 15:53:58;;;;;;;;;0.00;0.00;;;;;23.20;43.91;97847.34;4895471;28;45396;-76
2023/11/02 15:56:23;;;;;;;;;0.00;0.00;;;;;23.20;44.44;97865.09;4895202;28;49872;-77
2023/11/02 15:58:50;;;;;;;;;3.00;0.00;;;;;23.03;44.41;97842.25;4894825;28;46240;-76
2023/11/02 16:01:26;;;;;;;;;0.00;0.00;;;;;23.18;44.02;97860.06;4895245;28;45726;-76
2023/11/02 16:03:52;;;;;;;;;2.67;1.00;;;;;23.11;44.51;97847.03;4895134;28;45523;-75
2023/11/02 16:06:17;;;;;;;;;0.00;0.00;;;;;23.19;44.22;97864.31;4894652;28;45886;-75
2023/11/02 16:08:42;;;;;;;;;0.00;0.00;;;;;22.98;44.32;97819.16;4894707;28;45434;-76
2023/11/02 16:11:07;;;;;;;;;0.00;0.00;;;;;23.08;44.48;97821.06;4895571;28;45527;-75
2023/11/02 16:13:33;;;;;;;;;1.00;0.00;;;;;23.18;43.95;97822.94;4895563;29;47618;-76
2023/11/02 16:15:58;;;;;;;;;2.00;0.00;;;;;22.89;44.47;97768.50;4892670;29;46957;-82
2023/11/02 16:18:24;;;;;;;;;0.00;0.00;;;;;23.16;44.55;97840.97;4894934;28;45590;-78
2023/11/02 16:20:50;;;;;;;;;0.00;0.00;;;;;23.10;44.05;97826.09;4894564;28;45500;-77
2023/11/02 16:23:15;;;;;;;;;0.00;0.00;;;;;23.18;44.37;97858.22;4895223;28;45337;-77
2023/11/02 16:25:40;;;;;;;;;0.00;0.00;;;;;23.16;44.04;97872.81;4894458;28;50212;-78
2023/11/02 16:28:06;;;;;;;;;1.00;0.00;;;;;23.17;44.56;97861.94;4894354;28;46407;-77
2023/11/02 16:30:34;;;;;;;;;0.00;0.00;;;;;23.07;44.24;97844.13;4894797;28;45366;-78
2023/11/02 16:32:59;;;;;;;;;0.00;0.00;;;;;23.16;44.32;97847.06;4895101;28;45424;-77
2023/11/02 16:35:24;;;;;;;;;0.00;0.00;;;;;23.13;44.52;97836.19;4894395;28;45937;-79
2023/11/02 16:37:51;;;;;;;;;0.00;0.00;;;;;23.10;44.25;97834.06;4894285;28;45525;-79
2023/11/02 16:40:17;;;;;;;;;0.00;0.00;;;;;23.15;44.04;97864.03;4894923;28;46066;-79
2023/11/02 16:42:42;;;;;;;;;0.00;0.00;;;;;23.14;44.15;97856.34;4894586;28;45579;-80
2023/11/02 16:45:08;;;;;;;;;0.33;0.00;;;;;23.15;44.25;97864.03;4894203;28;45456;-78
2023/11/02 16:47:34;;;;;;;;;0.00;0.00;;;;;23.15;43.96;97857.94;4894362;28;45780;-78
2023/11/02 16:50:00;;;;;;;;;1.00;0.00;;;;;23.06;44.42;97850.47;4894649;28;45514;-77
2023/11/02 16:52:28;;;;;;;;;0.33;0.00;;;;;23.10;44.30;97842.00;4892563;29;45629;-73
2023/11/02 16:54:54;;;;;;;;;0.00;0.00;;;;;23.15;43.96;97869.34;4894292;28;46309;-75
2023/11/02 16:57:19;;;;;;;;;0.00;0.00;;;;;23.16;44.42;97873.56;4893989;28;45689;-74
2023/11/02 16:59:44;;;;;;;;;0.00;0.00;;;;;22.84;44.18;97810.91;4894452;28;45739;-74
2023/11/02 17:02:11;;;;;;;;;0.00;0.00;;;;;23.17;44.11;97880.50;4892892;29;45527;-77
2023/11/02 17:04:37;;;;;;;;;0.00;0.00;;;;;23.18;44.41;97870.69;4894540;28;46041;-76
2023/11/02 17:07:02;;;;;;;;;0.00;0.00;;;;;23.18;43.85;97870.69;4892410;29;45532;-76
2023/11/02 17:09:28;;;;;;;;;0.33;0.00;;;;;23.17;43.82;97863.78;4895564;28;45830;-73
2023/11/02 17:11:53;;;;;;;;;0.00;0.00;;;;;23.17;43.98;97858.47;4899625;28;45615;-76
2023/11/02 17:14:18;;;;;;;;;0.00;0.00;;;;;23.16;44.44;97880.75;4899239;28;46132;-76
2023/11/02 17:16:43;;;;;;;;;0.00;0.00;;;;;23.17;43.90;97890.28;4899260;28;45320;-77
2023/11/02 17:19:09;;;;;;;;;0.00;0.00;;;;;23.17;43.97;97904.34;4899265;28;45471;-76
2023/11/02 17:21:35;;;;;;;;;0.00;0.00;;;;;23.16;44.29;97902.75;4899479;28;45602;-76
2023/11/02 17:24:00;;;;;;;;;0.00;0.00;;;;;23.02;44.30;97883.09;4899460;28;46496;-76
2023/11/02 17:26:26;;;;;;;;;0.00;0.00;;;;;23.14;44.12;97902.22;4900136;28;45333;-76
2023/11/02 17:28:52;;;;;;;;;0.00;0.00;;;;;23.16;44.35;97912.59;4899302;28;45662;-76
2023/11/02 17:31:18;;;;;;;;;0.00;0.00;;;;;23.15;44.41;97913.63;4899510;28;45263;-76
2023/11/02 17:33:44;;;;;;;;;0.00;0.00;;;;;23.16;44.24;97917.88;4899305;28;45318;-76
2023/11/02 17:36:10;;;;;;;;;1.00;0.00;;;;;22.86;44.45;97875.06;4899174;28;45380;-76
2023/11/02 17:38:37;;;;;;;;;0.00;0.00;;;;;22.99;43.97;97897.66;4899281;28;45383;-76
2023/11/02 17:41:03;;;;;;;;;0.00;0.00;;;;;23.15;44.32;97921.59;4899345;28;45490;-76
2023/11/02 17:43:29;;;;;;;;;0.00;0.00;;;;;23.14;43.83;97926.09;4898842;28;45538;-77
2023/11/02 17:45:54;;;;;;;;;0.00;0.00;;;;;23.14;44.02;97942.00;4899078;29;45396;-77
2023/11/02 17:48:20;;;;;;;;;0.00;0.00;;;;;23.15;44.08;97938.31;4899267;28;45693;-76
2023/11/02 17:50:46;;;;;;;;;0.00;0.00;;;;;23.13;44.26;97935.13;4899193;28;45400;-75
2023/11/02 17:53:12;;;;;;;;;1.00;0.00;;;;;23.15;44.18;97933.00;4898843;28;46249;-75
2023/11/02 17:55:37;;;;;;;;;0.00;0.00;;;;;23.15;43.88;97940.97;4898984;28;45431;-75
2023/11/02 17:58:04;;;;;;;;;0.00;0.00;;;;;23.03;44.16;97935.84;4898346;28;49679;-77
2023/11/02 18:00:34;;;;;;;;;0.00;0.00;;;;;23.11;43.76;97950.47;4899007;28;45591;-75
2023/11/02 18:03:00;;;;;;;;;0.33;0.00;;;;;23.13;43.66;97958.97;4897543;29;46171;-75
2023/11/02 18:05:29;;;;;;;;;0.00;0.00;;;;;23.15;44.08;97959.53;4898717;28;45352;-76
2023/11/02 18:07:54;;;;;;;;;0.00;0.00;;;;;23.15;43.83;97972.78;4898999;28;45428;-75
2023/11/02 18:10:22;;;;;;;;;0.00;0.00;;;;;23.15;43.76;97986.03;4898879;28;45329;-75
2023/11/02 18:12:49;;;;;;;;;0.00;0.00;;;;;23.13;44.12;97963.47;4898276;29;46161;-75
2023/11/02 18:15:14;;;;;;;;;0.33;0.00;;;;;23.16;43.87;97992.91;4898429;29;45370;-76
2023/11/02 18:17:40;;;;;;;;;0.00;0.00;;;;;23.15;43.40;98006.44;4898624;29;45357;-75
2023/11/02 18:20:07;;;;;;;;;0.00;0.00;;;;;23.17;43.51;98009.63;4898727;28;45442;-75
2023/11/02 18:22:32;;;;;;;;;0.00;0.00;;;;;23.14;44.13;98004.84;4901748;28;46783;-76
2023/11/02 18:24:57;;;;;;;;;0.00;0.00;;;;;23.15;43.71;98023.16;4900475;28;45377;-75
2023/11/02 18:27:23;;;;;;;;;0.00;0.00;;;;;23.14;43.63;98018.91;4901789;28;45339;-76
2023/11/02 18:29:49;;;;;;;;;0.00;0.00;;;;;23.04;44.04;98014.34;4902050;28;45556;-75
2023/11/02 18:32:15;;;;;;;;;1.00;0.00;;;;;23.14;43.67;98044.63;4901682;28;46986;-76
2023/11/02 18:34:40;;;;;;;;;0.00;0.00;;;;;23.13;44.23;98046.50;4901767;28;45304;-76
2023/11/02 18:37:05;;;;;;;;;1.00;0.00;;;;;23.05;43.79;98045.13;4901681;28;45316;-76
2023/11/02 18:39:31;;;;;;;;;0.67;0.00;;;;;23.10;43.97;98060.25;4901575;28;46524;-77
2023/11/02 18:41:56;;;;;;;;;0.00;0.00;;;;;23.08;44.02;98054.44;4901440;28;45304;-75
2023/11/02 18:44:21;;;;;;;;;0.00;0.00;;;;;23.11;43.68;98066.38;4901776;28;45386;-75
2023/11/02 18:46:46;;;;;;;;;0.67;0.00;;;;;22.78;43.77;98014.19;4901711;28;45300;-72
2023/11/02 18:49:14;;;;;;;;;0.00;0.00;;;;;22.98;44.26;98057.00;4901634;28;45348;-77
2023/11/02 18:51:48;;;;;;;;;0.00;0.00;;;;;23.12;44.12;98082.03;4901598;28;46197;-75